createdAt,value
2017-11-16T00:00:58.801Z,33.03
2017-11-16T00:03:27.685Z,32.90
2017-11-16T00:05:56.560Z,34.60
2017-11-16T00:08:25.410Z,32.23
2017-11-16T00:10:54.291Z,35.80
2017-11-16T00:13:23.137Z,35.57
2017-11-16T00:15:51.973Z,34.63
2017-11-16T00:18:20.849Z,34.73
2017-11-16T00:20:49.791Z,34.20
2017-11-16T00:23:18.660Z,33.67
2017-11-16T00:25:47.542Z,35.80
2017-11-16T00:28:16.377Z,34.20
2017-11-16T00:30:45.576Z,34.07
2017-11-16T00:33:14.449Z,34.60
2017-11-16T00:35:43.309Z,35.87
2017-11-16T00:38:12.184Z,35.20
2017-11-16T00:40:41.315Z,36.30
2017-11-16T00:43:10.186Z,33.37
2017-11-16T00:45:39.042Z,34.33
2017-11-16T00:48:07.930Z,33.40
2017-11-16T00:50:36.780Z,33.60
2017-11-16T00:53:05.620Z,34.27
2017-11-16T00:55:34.518Z,31.17
2017-11-16T00:58:03.361Z,33.40
2017-11-16T01:00:32.242Z,30.93
2017-11-16T01:03:01.128Z,32.63
2017-11-16T01:05:29.981Z,33.27
2017-11-16T01:07:58.879Z,33.53
2017-11-16T01:10:27.760Z,33.03
2017-11-16T01:12:56.601Z,34.57
2017-11-16T01:15:25.447Z,35.47
2017-11-16T01:17:54.314Z,33.00
2017-11-16T01:20:23.162Z,35.20
2017-11-16T01:22:52.047Z,32.83
2017-11-16T01:25:20.966Z,33.73
2017-11-16T01:27:49.870Z,31.90
2017-11-16T01:30:18.713Z,33.43
2017-11-16T01:32:48.332Z,33.80
2017-11-16T01:35:17.934Z,33.00
2017-11-16T01:37:46.781Z,33.47
2017-11-16T01:40:15.688Z,31.60
2017-11-16T01:42:44.612Z,33.07
2017-11-16T01:45:13.461Z,34.13
2017-11-16T01:47:42.329Z,32.97
2017-11-16T01:50:11.193Z,29.97
2017-11-16T01:52:40.048Z,32.13
2017-11-16T01:55:08.945Z,31.03
2017-11-16T01:57:37.808Z,32.20
2017-11-16T02:00:06.699Z,31.73
2017-11-16T02:02:40.366Z,30.47
2017-11-16T02:05:09.273Z,30.27
2017-11-16T02:07:38.122Z,27.20
2017-11-16T02:10:07.120Z,27.93
2017-11-16T02:12:35.977Z,29.33
2017-11-16T02:15:05.054Z,28.63
2017-11-16T02:17:33.935Z,29.57
2017-11-16T02:20:02.799Z,28.20
2017-11-16T02:22:31.661Z,27.27
2017-11-16T02:25:00.771Z,25.97
2017-11-16T02:27:29.662Z,27.43
2017-11-16T02:29:58.549Z,28.40
2017-11-16T02:32:27.425Z,26.07
2017-11-16T02:34:56.659Z,25.23
2017-11-16T02:37:25.514Z,24.53
2017-11-16T02:39:54.860Z,25.23
2017-11-16T02:42:23.743Z,23.83
2017-11-16T02:44:53.581Z,25.57
2017-11-16T02:47:22.468Z,24.57
2017-11-16T02:49:51.669Z,25.23
2017-11-16T02:52:20.559Z,23.77
2017-11-16T02:54:49.424Z,25.90
2017-11-16T02:57:19.027Z,26.53
2017-11-16T02:59:48.267Z,24.87
2017-11-16T03:02:17.135Z,26.60
2017-11-16T03:04:46.018Z,26.07
2017-11-16T03:07:14.869Z,25.57
2017-11-16T03:09:43.726Z,25.77
2017-11-16T03:12:12.606Z,26.50
2017-11-16T03:14:41.445Z,24.70
2017-11-16T03:17:10.334Z,24.93
2017-11-16T03:19:39.465Z,23.87
2017-11-16T03:22:08.336Z,23.03
2017-11-16T03:24:37.247Z,23.50
2017-11-16T03:27:06.084Z,23.03
2017-11-16T03:29:34.967Z,24.07
2017-11-16T03:32:05.170Z,23.37
2017-11-16T03:34:34.033Z,23.53
2017-11-16T03:37:02.955Z,22.20
2017-11-16T03:39:31.833Z,22.40
2017-11-16T03:42:00.707Z,23.00
2017-11-16T03:44:29.569Z,22.87
2017-11-16T03:46:58.433Z,22.07
2017-11-16T03:49:27.285Z,22.23
2017-11-16T03:51:56.133Z,20.40
2017-11-16T03:54:26.921Z,22.73
2017-11-16T03:56:56.433Z,22.77
2017-11-16T03:59:25.316Z,22.97
2017-11-16T04:01:54.164Z,21.17
2017-11-16T04:04:23.019Z,21.30
2017-11-16T04:06:51.913Z,19.30
2017-11-16T04:09:20.775Z,20.97
2017-11-16T04:11:49.957Z,19.00
2017-11-16T04:14:18.828Z,20.53
2017-11-16T04:16:47.695Z,18.67
2017-11-16T04:19:16.556Z,19.30
2017-11-16T04:21:45.648Z,18.07
2017-11-16T04:24:15.247Z,18.57
2017-11-16T04:26:44.127Z,18.03
2017-11-16T04:29:13.023Z,17.07
2017-11-16T04:31:41.883Z,17.40
2017-11-16T04:34:10.761Z,17.57
2017-11-16T04:36:39.642Z,17.73
2017-11-16T04:39:09.144Z,16.93
2017-11-16T04:41:38.037Z,16.17
2017-11-16T04:44:06.897Z,17.43
2017-11-16T04:46:35.733Z,16.17
2017-11-16T04:49:05.567Z,15.10
2017-11-16T04:51:34.433Z,16.13
2017-11-16T04:54:04.229Z,16.47
2017-11-16T04:56:33.084Z,14.83
2017-11-16T04:59:02.007Z,15.83
2017-11-16T05:01:30.877Z,15.53
2017-11-16T05:03:59.822Z,15.10
2017-11-16T05:06:28.741Z,15.00
2017-11-16T05:08:57.634Z,15.00
2017-11-16T05:11:26.593Z,14.83
2017-11-16T05:13:56.338Z,13.83
2017-11-16T05:16:25.607Z,15.70
2017-11-16T05:18:55.120Z,13.97
2017-11-16T05:21:24.057Z,13.80
2017-11-16T05:23:53.144Z,14.00
2017-11-16T05:26:22.999Z,13.27
2017-11-16T05:28:52.067Z,13.27
2017-11-16T05:31:21.359Z,12.93
2017-11-16T05:33:50.228Z,13.60
2017-11-16T05:36:19.150Z,13.33
2017-11-16T05:38:47.991Z,14.13
2017-11-16T05:41:16.881Z,13.37
2017-11-16T05:43:45.749Z,13.73
2017-11-16T05:46:14.605Z,13.60
2017-11-16T05:48:43.445Z,12.83
2017-11-16T05:51:12.939Z,13.20
2017-11-16T05:53:41.926Z,13.23
2017-11-16T05:56:10.857Z,12.80
2017-11-16T05:58:39.746Z,13.30
2017-11-16T06:01:09.298Z,13.77
2017-11-16T06:03:38.140Z,13.10
2017-11-16T06:06:07.033Z,13.80
2017-11-16T06:08:35.947Z,14.40
2017-11-16T06:11:04.922Z,13.53
2017-11-16T06:13:33.809Z,13.43
2017-11-16T06:16:02.700Z,13.70
2017-11-16T06:18:31.565Z,13.90
2017-11-16T06:21:01.267Z,13.83
2017-11-16T06:23:30.217Z,14.50
2017-11-16T06:25:59.131Z,14.10
2017-11-16T06:28:28.503Z,14.10
2017-11-16T06:30:57.815Z,15.00
2017-11-16T06:33:26.653Z,13.80
2017-11-16T06:35:56.651Z,14.57
2017-11-16T06:38:25.517Z,14.10
2017-11-16T06:40:55.317Z,14.27
2017-11-16T06:43:24.182Z,14.20
2017-11-16T06:45:53.030Z,13.90
2017-11-16T06:48:21.891Z,14.17
2017-11-16T06:50:50.830Z,14.53
2017-11-16T06:53:19.701Z,15.63
2017-11-16T06:55:48.575Z,14.23
2017-11-16T06:58:17.459Z,14.60
2017-11-16T07:00:46.494Z,14.47
2017-11-16T07:03:16.051Z,14.80
2017-11-16T07:05:45.671Z,14.30
2017-11-16T07:08:14.521Z,15.50
2017-11-16T07:10:43.399Z,15.93
2017-11-16T07:13:12.274Z,15.20
2017-11-16T07:15:41.139Z,15.23
2017-11-16T07:18:09.981Z,15.63
2017-11-16T07:20:38.961Z,15.90
2017-11-16T07:23:07.819Z,15.83
2017-11-16T07:25:36.889Z,15.80
2017-11-16T07:28:05.755Z,15.00
2017-11-16T07:30:35.437Z,16.50
2017-11-16T07:33:04.280Z,16.20
2017-11-16T07:35:33.187Z,14.87
2017-11-16T07:38:02.133Z,16.07
2017-11-16T07:40:30.993Z,15.83
2017-11-16T07:42:59.881Z,15.90
2017-11-16T07:45:28.778Z,15.03
2017-11-16T07:47:57.634Z,15.83
2017-11-16T07:50:26.535Z,15.87
2017-11-16T07:52:55.377Z,16.13
2017-11-16T07:55:24.249Z,16.30
2017-11-16T07:57:53.155Z,16.13
2017-11-16T08:00:21.999Z,15.37
2017-11-16T08:02:50.895Z,16.40
2017-11-16T08:05:19.797Z,15.40
2017-11-16T08:07:48.639Z,16.57
2017-11-16T08:10:17.494Z,15.50
2017-11-16T08:12:46.505Z,16.33
2017-11-16T08:15:16.263Z,14.97
2017-11-16T08:17:45.151Z,15.37
2017-11-16T08:20:14.021Z,15.90
2017-11-16T08:22:42.873Z,16.07
2017-11-16T08:25:11.716Z,16.07
2017-11-16T08:27:40.585Z,16.60
2017-11-16T08:30:10.349Z,16.37
2017-11-16T08:32:39.245Z,16.37
2017-11-16T08:35:08.155Z,15.53
2017-11-16T08:37:37.537Z,14.67
2017-11-16T08:40:06.457Z,16.03
2017-11-16T08:42:35.325Z,15.37
2017-11-16T08:45:04.181Z,15.83
2017-11-16T08:47:33.037Z,14.80
2017-11-16T08:50:01.909Z,15.00
2017-11-16T08:52:30.827Z,14.47
2017-11-16T08:54:59.673Z,15.00
2017-11-16T08:57:28.569Z,14.40
2017-11-16T08:59:57.423Z,14.27
2017-11-16T09:02:26.275Z,14.73
2017-11-16T09:04:55.169Z,15.03
2017-11-16T09:07:24.249Z,15.13
2017-11-16T09:09:53.090Z,14.70
2017-11-16T09:12:21.961Z,14.80
2017-11-16T09:14:51.359Z,15.10
2017-11-16T09:17:20.216Z,15.00
2017-11-16T09:19:49.198Z,15.03
2017-11-16T09:22:18.044Z,15.27
2017-11-16T09:24:46.896Z,15.97
2017-11-16T09:27:15.825Z,15.03
2017-11-16T09:29:44.686Z,16.37
2017-11-16T09:32:14.062Z,15.50
2017-11-16T09:34:42.946Z,14.23
2017-11-16T09:37:11.831Z,14.37
2017-11-16T09:39:41.245Z,14.87
2017-11-16T09:42:10.131Z,14.57
2017-11-16T09:44:39.041Z,14.50
2017-11-16T09:47:08.647Z,17.60
2017-11-16T09:49:37.533Z,24.90
2017-11-16T09:52:06.394Z,16.00
2017-11-16T09:54:35.241Z,22.90
2017-11-16T09:57:04.561Z,44.03
2017-11-16T09:59:33.584Z,15.20
2017-11-16T10:02:02.551Z,15.83
2017-11-16T10:04:31.417Z,15.43
2017-11-16T10:07:00.264Z,16.27
2017-11-16T10:09:29.153Z,17.53
2017-11-16T10:11:58.028Z,16.43
2017-11-16T10:14:26.869Z,19.90
2017-11-16T10:16:56.365Z,15.30
2017-11-16T10:19:26.117Z,19.40
2017-11-16T10:21:54.967Z,15.43
2017-11-16T10:24:23.834Z,15.13
2017-11-16T10:26:52.720Z,17.30
2017-11-16T10:29:21.611Z,16.33
2017-11-16T10:31:50.485Z,15.40
2017-11-16T10:34:19.361Z,16.97
2017-11-16T10:36:48.581Z,15.67
2017-11-16T10:39:17.444Z,15.13
2017-11-16T10:41:46.314Z,16.80
2017-11-16T10:44:15.163Z,15.93
2017-11-16T10:46:44.025Z,15.67
2017-11-16T10:49:12.905Z,15.63
2017-11-16T10:51:41.789Z,15.57
2017-11-16T10:54:10.645Z,16.13
2017-11-16T10:56:39.532Z,16.90
2017-11-16T10:59:08.427Z,17.90
2017-11-16T11:01:37.276Z,16.03
2017-11-16T11:04:06.167Z,17.17
2017-11-16T11:06:35.015Z,17.47
2017-11-16T11:09:03.924Z,17.90
2017-11-16T11:11:32.783Z,18.47
2017-11-16T11:14:01.637Z,18.37
2017-11-16T11:16:30.515Z,18.33
2017-11-16T11:18:59.381Z,17.93
2017-11-16T11:21:28.227Z,18.23
2017-11-16T11:23:57.081Z,16.93
2017-11-16T11:26:25.971Z,18.43
2017-11-16T11:28:55.802Z,18.30
2017-11-16T11:31:24.654Z,18.43
2017-11-16T11:33:53.568Z,17.77
2017-11-16T11:36:22.425Z,18.43
2017-11-16T11:38:51.269Z,17.97
2017-11-16T11:41:20.171Z,19.17
2017-11-16T11:43:49.009Z,19.10
2017-11-16T11:46:18.112Z,19.63
2017-11-16T11:48:46.993Z,19.13
2017-11-16T11:51:15.825Z,20.47
2017-11-16T11:53:44.677Z,19.93
2017-11-16T11:56:13.597Z,19.10
2017-11-16T11:58:42.462Z,19.47
2017-11-16T12:01:11.359Z,19.83
2017-11-16T12:03:40.245Z,20.30
2017-11-16T12:06:09.089Z,24.57
2017-11-16T12:08:37.945Z,27.57
2017-11-16T12:11:06.823Z,25.57
2017-11-16T12:13:35.668Z,23.20
2017-11-16T12:16:04.517Z,21.80
2017-11-16T12:18:33.393Z,21.13
2017-11-16T12:21:02.245Z,22.87
2017-11-16T12:23:31.105Z,24.63
2017-11-16T12:25:59.992Z,22.07
2017-11-16T12:28:28.840Z,26.10
2017-11-16T12:30:57.700Z,22.97
2017-11-16T12:33:27.465Z,20.47
2017-11-16T12:35:56.333Z,24.70
2017-11-16T12:38:25.173Z,22.20
2017-11-16T12:40:54.069Z,21.40
2017-11-16T12:43:22.950Z,20.20
2017-11-16T12:45:51.812Z,21.57
2017-11-16T12:48:20.707Z,22.30
2017-11-16T12:50:49.597Z,22.33
2017-11-16T12:53:18.461Z,21.63
2017-11-16T12:55:47.339Z,22.23
2017-11-16T12:58:16.232Z,20.87
2017-11-16T13:00:45.082Z,26.03
2017-11-16T13:03:13.975Z,21.20
2017-11-16T13:05:42.813Z,24.07
2017-11-16T13:08:11.682Z,29.07
2017-11-16T13:10:40.562Z,22.83
2017-11-16T13:13:09.421Z,23.10
2017-11-16T13:15:38.299Z,22.60
2017-11-16T13:18:07.185Z,23.87
2017-11-16T13:20:36.043Z,26.13
2017-11-16T13:23:04.971Z,23.23
2017-11-16T13:25:33.837Z,24.17
2017-11-16T13:28:02.732Z,24.93
2017-11-16T13:30:31.592Z,24.80
2017-11-16T13:33:01.033Z,24.10
2017-11-16T13:35:29.915Z,28.13
2017-11-16T13:37:59.371Z,25.83
2017-11-16T13:40:28.303Z,25.13
2017-11-16T13:42:57.154Z,26.03
2017-11-16T13:45:26.050Z,24.87
2017-11-16T13:47:54.965Z,25.90
2017-11-16T13:53:09.860Z,25.03
2017-11-16T13:55:38.716Z,25.20
2017-11-16T13:58:07.578Z,24.27
2017-11-16T14:00:36.467Z,28.00
2017-11-16T14:03:05.333Z,30.13
2017-11-16T14:05:34.187Z,43.30
2017-11-16T14:08:03.133Z,28.83
2017-11-16T14:10:31.979Z,30.40
2017-11-16T14:13:00.841Z,28.67
2017-11-16T14:15:29.709Z,30.63
2017-11-16T14:17:58.571Z,30.60
2017-11-16T14:20:27.426Z,30.47
2017-11-16T14:22:56.324Z,29.47
2017-11-16T14:25:25.163Z,32.63
2017-11-16T14:27:54.023Z,30.33
2017-11-16T14:30:22.937Z,31.27
2017-11-16T14:32:51.807Z,31.60
2017-11-16T14:35:20.684Z,29.03
2017-11-16T14:37:49.664Z,30.67
2017-11-16T14:40:18.503Z,32.20
2017-11-16T14:42:47.393Z,35.17
2017-11-16T14:45:16.309Z,31.60
2017-11-16T14:47:45.170Z,30.07
2017-11-16T14:50:14.035Z,31.00
2017-11-16T14:52:42.920Z,32.57
2017-11-16T14:55:11.776Z,31.87
2017-11-16T14:57:40.634Z,34.87
2017-11-16T15:00:11.533Z,30.97
2017-11-16T15:02:41.112Z,31.40
2017-11-16T15:05:10.017Z,31.30
2017-11-16T15:07:38.882Z,32.87
2017-11-16T15:10:07.741Z,31.17
2017-11-16T15:12:36.642Z,33.63
2017-11-16T15:15:05.506Z,32.63
2017-11-16T15:17:34.402Z,32.67
2017-11-16T15:20:03.321Z,32.93
2017-11-16T15:22:32.175Z,32.33
2017-11-16T15:25:01.059Z,32.33
2017-11-16T15:27:29.928Z,34.07
2017-11-16T15:29:59.396Z,33.80
2017-11-16T15:32:28.307Z,30.50
2017-11-16T15:34:57.199Z,36.13
2017-11-16T15:37:26.048Z,31.37
2017-11-16T15:39:55.002Z,32.43
2017-11-16T15:42:23.916Z,35.73
2017-11-16T15:44:53.662Z,28.67
2017-11-16T15:47:22.509Z,28.53
2017-11-16T15:49:52.122Z,30.83
2017-11-16T15:52:21.933Z,31.10
2017-11-16T15:54:50.777Z,31.43
2017-11-16T15:57:19.662Z,34.10
2017-11-16T15:59:48.511Z,29.87
2017-11-16T16:02:17.389Z,30.47
2017-11-16T16:04:46.298Z,29.43
2017-11-16T16:07:15.144Z,29.10
2017-11-16T16:09:44.013Z,33.53
2017-11-16T16:12:12.884Z,29.43
2017-11-16T16:14:41.742Z,119.17
2017-11-16T16:17:10.594Z,33.47
2017-11-16T16:19:39.471Z,32.60
2017-11-16T16:22:08.322Z,29.07
2017-11-16T16:24:37.174Z,27.77
2017-11-16T16:27:06.064Z,29.07
2017-11-16T16:29:34.910Z,52.47
2017-11-16T16:32:03.788Z,29.60
2017-11-16T16:34:32.662Z,29.03
2017-11-16T16:37:01.501Z,31.90
2017-11-16T16:39:30.371Z,33.97
2017-11-16T16:41:59.889Z,27.33
2017-11-16T16:44:28.749Z,39.40
2017-11-16T16:46:57.606Z,28.53
2017-11-16T16:49:26.607Z,29.53
2017-11-16T16:51:56.166Z,28.30
2017-11-16T16:54:25.061Z,28.37
2017-11-16T16:56:53.994Z,27.37
2017-11-16T16:59:23.433Z,29.43
2017-11-16T17:01:52.324Z,33.20
2017-11-16T17:04:21.205Z,30.77
2017-11-16T17:06:50.184Z,69.70
2017-11-16T17:09:19.048Z,42.00
2017-11-16T17:11:47.919Z,33.23
2017-11-16T17:14:16.773Z,29.13
2017-11-16T17:16:45.630Z,29.93
2017-11-16T17:19:14.495Z,28.97
2017-11-16T17:21:43.343Z,28.03
2017-11-16T17:24:12.200Z,30.33
2017-11-16T17:26:41.074Z,30.30
2017-11-16T17:29:09.926Z,30.23
2017-11-16T17:31:38.774Z,32.30
2017-11-16T17:34:07.642Z,29.40
2017-11-16T17:36:36.480Z,31.20
2017-11-16T17:39:05.399Z,29.43
2017-11-16T17:41:34.287Z,31.57
2017-11-16T17:44:03.150Z,32.60
2017-11-16T17:46:32.003Z,34.80
2017-11-16T17:49:00.866Z,34.47
2017-11-16T17:51:30.551Z,37.73
2017-11-16T17:54:00.231Z,33.73
2017-11-16T17:56:29.132Z,37.67
2017-11-16T17:58:57.987Z,32.87
2017-11-16T18:01:26.835Z,36.33
2017-11-16T18:03:55.730Z,38.40
2017-11-16T18:06:24.576Z,33.43
2017-11-16T18:08:53.458Z,36.47
2017-11-16T18:11:22.389Z,33.20
2017-11-16T18:13:51.237Z,33.80
2017-11-16T18:16:20.096Z,34.13
2017-11-16T18:18:49.008Z,33.93
2017-11-16T18:21:17.882Z,34.63
2017-11-16T18:23:46.747Z,33.80
2017-11-16T18:26:15.654Z,33.67
2017-11-16T18:28:44.506Z,35.40
2017-11-16T18:31:13.398Z,34.77
2017-11-16T18:33:42.313Z,35.73
2017-11-16T18:36:11.159Z,34.70
2017-11-16T18:38:40.022Z,33.37
2017-11-16T18:41:08.919Z,35.20
2017-11-16T18:43:37.769Z,35.07
2017-11-16T18:46:06.624Z,37.90
2017-11-16T18:48:35.555Z,35.73
2017-11-16T18:51:04.444Z,37.13
2017-11-16T18:53:33.333Z,51.27
2017-11-16T18:56:02.228Z,54.37
2017-11-16T18:58:31.109Z,36.50
2017-11-16T19:00:59.966Z,41.00
2017-11-16T19:03:28.882Z,37.00
2017-11-16T19:05:57.732Z,40.13
2017-11-16T19:08:26.591Z,45.77
2017-11-16T19:10:55.489Z,39.20
2017-11-16T19:13:24.357Z,39.23
2017-11-16T19:15:53.211Z,39.97
2017-11-16T19:18:22.109Z,39.57
2017-11-16T19:20:50.961Z,35.70
2017-11-16T19:23:19.919Z,35.00
2017-11-16T19:25:49.869Z,38.20
2017-11-16T19:28:19.433Z,37.17
2017-11-16T19:30:48.282Z,36.40
2017-11-16T19:33:17.176Z,35.83
2017-11-16T19:35:46.021Z,36.67
2017-11-16T19:38:15.249Z,39.63
2017-11-16T19:40:44.125Z,37.43
2017-11-16T19:43:12.984Z,37.73
2017-11-16T19:45:42.668Z,38.37
2017-11-16T19:48:11.535Z,37.57
2017-11-16T19:50:40.389Z,37.63
2017-11-16T19:53:09.590Z,36.27
2017-11-16T19:55:38.457Z,37.77
2017-11-16T19:58:07.333Z,41.80
2017-11-16T20:00:36.191Z,37.70
2017-11-16T20:03:05.065Z,35.77
2017-11-16T20:05:33.925Z,43.27
2017-11-16T20:08:02.815Z,41.07
2017-11-16T20:10:31.746Z,37.23
2017-11-16T20:13:01.268Z,37.63
2017-11-16T20:15:30.113Z,39.47
2017-11-16T20:17:58.992Z,36.83
2017-11-16T20:20:27.878Z,41.13
2017-11-16T20:22:56.739Z,38.40
2017-11-16T20:25:25.611Z,38.33
2017-11-16T20:27:54.469Z,38.80
2017-11-16T20:30:23.328Z,36.60
2017-11-16T20:32:52.224Z,38.13
2017-11-16T20:35:21.559Z,39.43
2017-11-16T20:37:57.162Z,38.60
2017-11-16T20:40:26.014Z,38.63
2017-11-16T20:43:15.627Z,38.47
2017-11-16T20:46:03.225Z,39.70
2017-11-16T20:48:46.996Z,38.03
2017-11-16T20:51:17.994Z,38.33
2017-11-16T20:53:48.546Z,40.63
2017-11-16T20:56:17.390Z,40.37
2017-11-16T20:58:46.300Z,38.10
2017-11-16T21:01:15.498Z,37.37
2017-11-16T21:03:44.410Z,36.30
2017-11-16T21:06:14.157Z,38.33
2017-11-16T21:08:43.022Z,37.57
2017-11-16T21:11:11.875Z,39.30
2017-11-16T21:13:40.741Z,38.97
2017-11-16T21:16:09.665Z,41.23
2017-11-16T21:18:39.297Z,37.60
2017-11-16T21:21:08.192Z,36.40
2017-11-16T21:23:37.860Z,39.47
2017-11-16T21:26:06.745Z,40.03
2017-11-16T21:28:35.606Z,38.07
2017-11-16T21:31:04.508Z,38.77
2017-11-16T21:33:33.387Z,37.40
2017-11-16T21:36:02.261Z,38.63
2017-11-16T21:38:31.118Z,38.03
2017-11-16T21:40:59.990Z,37.50
2017-11-16T21:43:29.176Z,39.23
2017-11-16T21:45:58.178Z,40.13
2017-11-16T21:48:27.703Z,37.80
2017-11-16T21:50:56.735Z,38.43
2017-11-16T21:53:25.618Z,39.90
2017-11-16T21:55:54.515Z,41.33
2017-11-16T22:00:57.513Z,41.67
2017-11-16T22:03:26.369Z,41.27
2017-11-16T22:05:55.213Z,40.53
2017-11-16T22:08:24.111Z,43.40
2017-11-16T22:10:52.991Z,43.00
2017-11-16T22:13:21.933Z,42.83
2017-11-16T22:15:50.806Z,43.97
2017-11-16T22:18:19.663Z,41.30
2017-11-16T22:20:48.508Z,42.50
2017-11-16T22:23:17.422Z,42.00
2017-11-16T22:25:46.316Z,40.63
2017-11-16T22:28:15.153Z,43.00
2017-11-16T22:30:44.022Z,43.70
2017-11-16T22:33:12.874Z,43.23
2017-11-16T22:35:42.169Z,44.80
2017-11-16T22:38:11.110Z,45.97
2017-11-16T22:40:46.329Z,44.83
2017-11-16T22:43:22.138Z,33.10
2017-11-16T22:45:57.404Z,28.50
2017-11-16T22:48:33.495Z,24.13
2017-11-16T22:51:09.098Z,19.13
2017-11-16T22:53:46.202Z,18.43
2017-11-16T22:56:23.550Z,15.77
2017-11-16T22:58:59.648Z,12.10
2017-11-16T23:01:35.088Z,12.60
2017-11-16T23:04:04.644Z,10.13
2017-11-16T23:06:35.178Z,9.47
2017-11-16T23:09:04.561Z,10.70
2017-11-16T23:11:35.172Z,9.53
2017-11-16T23:14:04.184Z,10.17
2017-11-16T23:16:34.820Z,10.07
2017-11-16T23:19:04.004Z,10.13
2017-11-16T23:21:33.159Z,10.63
2017-11-16T23:24:02.987Z,11.47
2017-11-16T23:26:31.973Z,12.33
2017-11-16T23:29:00.827Z,11.67
2017-11-16T23:31:29.668Z,12.03
2017-11-16T23:33:58.543Z,12.07
2017-11-16T23:36:27.381Z,11.90
2017-11-16T23:38:56.691Z,12.13
2017-11-16T23:41:27.052Z,12.20
2017-11-16T23:43:55.901Z,11.87
2017-11-16T23:46:24.772Z,12.13
2017-11-16T23:48:53.635Z,11.80
2017-11-16T23:51:22.504Z,11.77
2017-11-16T23:53:51.360Z,11.37
2017-11-16T23:56:20.235Z,12.17
2017-11-16T23:58:49.089Z,11.60
